Recycle, Texas
Current Conditions -  °F | °C
As of 3:35 PM on Wednesday 17 Dec 2014 (Local Time) from KPEZ Reporting Station
Overcast Overcast  
Wind Chill: 61°   Ceiling: 1400
Heat Index: 61°   Visibility: 10mi
Dew Point: 54°   Wind: 9mph
Humidity: 76%   Direction: 60°ENE
Pressure: 30"   Gusts: NA
Location:  29.0306°N, 98.0993°W
Report Text: KPEZ 172135Z AUTO 06008KT 10SM OVC014 16/12 A3000 RMK AO2 T01630121
Loading
Personal Weather Stations






























Interactive Weather Map New forecast layout! Learn more

10-Day Weather Forecast

Advertisements
Track Severe Weather on mobile